Waterville, Canada
Current Conditions -  °F | °C
As of 7:52 AM on Saturday 25 Oct 2014 (Local Time) from CYSC Reporting Station
Clear Clear  
Wind Chill: 30°   Ceiling: Unl
Heat Index: 30°   Visibility: 9mi
Dew Point: 30°   Wind: 3mph
Humidity: 100%   Direction: 90°E
Pressure: 29.73"   Gusts: NA
Location:  45.28°N, 71.88°W
Report Text: CYSC 251152Z AUTO 09003KT 9SM CLR M01/M01 A2973 RMK ICG PAST HR SLP079
Loading
Personal Weather Stations






























Interactive Weather Map
Tropical Storm Tracking
New forecast layout! Learn more

10-Day Weather Forecast

Advertisements
Track Severe Weather on mobile